createdAt,value
2023-02-25T00:02:05.607Z,4.30
2023-02-25T00:04:33.792Z,4.30
2023-02-25T00:07:02.444Z,4.30
2023-02-25T00:09:31.388Z,4.30
2023-02-25T00:11:59.744Z,4.30
2023-02-25T00:14:28.365Z,4.30
2023-02-25T00:16:57.386Z,4.30
2023-02-25T00:19:27.888Z,4.30
2023-02-25T00:21:56.466Z,4.30
2023-02-25T00:24:24.982Z,4.30
2023-02-25T00:26:53.091Z,4.30
2023-02-25T00:29:22.123Z,4.30
2023-02-25T00:31:50.574Z,4.30
2023-02-25T00:34:18.841Z,4.30
2023-02-25T00:36:50.076Z,4.30
2023-02-25T00:39:18.537Z,4.30
2023-02-25T00:41:46.777Z,4.30
2023-02-25T00:44:15.164Z,4.30
2023-02-25T00:46:43.385Z,4.30
2023-02-25T00:49:16.697Z,4.20
2023-02-25T00:51:50.769Z,4.30
2023-02-25T00:54:19.520Z,4.30
2023-02-25T00:56:47.635Z,4.30
2023-02-25T00:59:15.852Z,4.30
2023-02-25T01:01:45.599Z,4.30
2023-02-25T01:04:13.767Z,4.30
2023-02-25T01:06:41.993Z,4.30
2023-02-25T01:09:14.711Z,4.30
2023-02-25T01:11:47.358Z,4.20
2023-02-25T01:14:18.716Z,4.20
2023-02-25T01:16:48.386Z,4.20
2023-02-25T01:19:19.703Z,4.20
2023-02-25T01:21:52.234Z,4.20
2023-02-25T01:24:25.073Z,4.20
2023-02-25T01:26:58.615Z,4.20
2023-02-25T01:29:30.246Z,4.20
2023-02-25T01:32:02.083Z,4.20
2023-02-25T01:34:31.724Z,4.20
2023-02-25T01:37:03.631Z,4.20
2023-02-25T01:39:34.072Z,4.20
2023-02-25T01:42:12.527Z,4.20
2023-02-25T01:45:30.300Z,4.20
2023-02-25T01:48:15.733Z,4.20
2023-02-25T01:50:50.010Z,4.20
2023-02-25T01:53:25.503Z,4.20
2023-02-25T01:55:57.556Z,4.20
2023-02-25T01:58:28.452Z,4.20
2023-02-25T02:00:57.057Z,4.20
2023-02-25T02:03:29.163Z,4.20
2023-02-25T02:06:06.378Z,4.20
2023-02-25T02:08:36.548Z,4.20
2023-02-25T02:11:06.842Z,4.20
2023-02-25T02:13:39.842Z,4.10
2023-02-25T02:16:27.635Z,4.20
2023-02-25T02:19:01.748Z,4.20
2023-02-25T02:21:54.687Z,4.20
2023-02-25T02:25:25.532Z,4.20
2023-02-25T02:28:33.501Z,4.20
2023-02-25T02:31:37.402Z,4.20
2023-02-25T02:34:21.616Z,4.10
2023-02-25T02:37:05.374Z,4.10
2023-02-25T02:39:53.007Z,4.10
2023-02-25T02:42:35.777Z,4.10
2023-02-25T02:45:17.625Z,4.10
2023-02-25T02:47:52.201Z,4.10
2023-02-25T02:50:30.860Z,4.10
2023-02-25T02:53:05.072Z,4.10
2023-02-25T02:55:39.911Z,4.10
2023-02-25T02:58:14.418Z,4.10
2023-02-25T03:00:48.420Z,4.10
2023-02-25T03:03:23.013Z,4.10
2023-02-25T03:05:54.990Z,4.10
2023-02-25T03:08:29.320Z,4.10
2023-02-25T03:10:58.655Z,4.10
2023-02-25T03:13:27.189Z,4.10
2023-02-25T03:15:56.312Z,4.10
2023-02-25T03:18:38.099Z,4.20
2023-02-25T03:21:18.883Z,4.20
2023-02-25T03:23:49.590Z,4.20
2023-02-25T03:26:25.513Z,4.20
2023-02-25T03:28:57.966Z,4.20
2023-02-25T03:31:32.734Z,4.20
2023-02-25T03:34:10.183Z,4.20
2023-02-25T03:36:44.778Z,4.20
2023-02-25T03:39:19.473Z,4.20
2023-02-25T03:41:54.534Z,4.20
2023-02-25T03:44:28.675Z,4.20
2023-02-25T03:46:59.501Z,4.20
2023-02-25T03:49:38.764Z,4.20
2023-02-25T03:52:15.340Z,4.20
2023-02-25T03:54:44.705Z,4.30
2023-02-25T03:57:12.813Z,4.30
2023-02-25T03:59:40.974Z,4.30
2023-02-25T04:02:10.320Z,4.30
2023-02-25T04:04:40.738Z,4.30
2023-02-25T04:07:08.906Z,4.30
2023-02-25T04:09:36.982Z,4.20
2023-02-25T04:12:07.467Z,4.20
2023-02-25T04:14:35.594Z,4.20
2023-02-25T04:17:05.974Z,4.20
2023-02-25T04:19:34.271Z,4.20
2023-02-25T04:22:05.792Z,4.20
2023-02-25T04:24:33.977Z,4.20
2023-02-25T04:27:02.510Z,4.20
2023-02-25T04:29:30.671Z,4.20
2023-02-25T04:31:59.512Z,4.30
2023-02-25T04:34:27.752Z,4.20
2023-02-25T04:36:55.858Z,4.30
2023-02-25T04:39:25.282Z,4.30
2023-02-25T04:41:53.392Z,4.30
2023-02-25T04:44:21.711Z,4.30
2023-02-25T04:46:51.603Z,4.30
2023-02-25T04:49:22.319Z,4.30
2023-02-25T04:51:52.438Z,4.30
2023-02-25T04:54:21.009Z,4.30
2023-02-25T04:56:50.464Z,4.30
2023-02-25T04:59:18.879Z,4.30
2023-02-25T05:01:47.087Z,4.30
2023-02-25T05:04:15.328Z,4.40
2023-02-25T05:06:43.396Z,4.30
2023-02-25T05:09:11.468Z,4.30
2023-02-25T05:11:39.815Z,4.30
2023-02-25T05:14:09.774Z,4.30
2023-02-25T05:16:38.710Z,4.30
2023-02-25T05:19:07.101Z,4.30
2023-02-25T05:21:35.824Z,4.30
2023-02-25T05:24:03.968Z,4.30
2023-02-25T05:26:32.137Z,4.30
2023-02-25T05:29:00.666Z,4.30
2023-02-25T05:31:30.364Z,4.30
2023-02-25T05:33:58.579Z,4.30
2023-02-25T05:36:28.416Z,4.30
2023-02-25T05:39:02.587Z,4.30
2023-02-25T05:41:31.360Z,4.30
2023-02-25T05:43:59.530Z,4.30
2023-02-25T05:46:29.221Z,4.30
2023-02-25T05:48:57.551Z,4.30
2023-02-25T05:51:25.743Z,4.30
2023-02-25T05:53:54.200Z,4.30
2023-02-25T05:56:29.485Z,4.20
2023-02-25T05:59:00.023Z,4.30
2023-02-25T06:01:31.441Z,4.20
2023-02-25T06:03:59.907Z,4.20
2023-02-25T06:06:31.533Z,4.30
2023-02-25T06:08:59.973Z,4.30
2023-02-25T06:11:30.541Z,4.20
2023-02-25T06:14:00.938Z,4.30
2023-02-25T06:16:31.946Z,4.20
2023-02-25T06:19:02.110Z,4.20
2023-02-25T06:21:31.678Z,4.30
2023-02-25T06:24:01.028Z,4.20
2023-02-25T06:26:29.984Z,4.20
2023-02-25T06:28:58.881Z,4.20
2023-02-25T06:31:27.444Z,4.20
2023-02-25T06:33:56.996Z,4.20
2023-02-25T06:36:25.594Z,4.20
2023-02-25T06:38:53.998Z,4.20
2023-02-25T06:41:23.987Z,4.20
2023-02-25T06:43:53.100Z,4.20
2023-02-25T06:46:25.878Z,4.20
2023-02-25T06:48:57.238Z,4.20
2023-02-25T06:51:25.761Z,4.20
2023-02-25T06:53:53.980Z,4.20
2023-02-25T06:56:22.839Z,4.20
2023-02-25T06:58:52.490Z,4.20
2023-02-25T07:01:20.769Z,4.20
2023-02-25T07:03:48.965Z,4.20
2023-02-25T07:06:19.057Z,4.20
2023-02-25T07:08:47.536Z,4.20
2023-02-25T07:11:29.056Z,4.20
2023-02-25T07:13:57.764Z,4.20
2023-02-25T07:16:26.984Z,4.20
2023-02-25T07:18:55.184Z,4.20
2023-02-25T07:21:29.160Z,4.20
2023-02-25T07:23:57.836Z,4.20
2023-02-25T07:26:28.246Z,4.20
2023-02-25T07:28:57.893Z,4.20
2023-02-25T07:31:28.568Z,4.20
2023-02-25T07:34:00.071Z,4.30
2023-02-25T07:36:30.690Z,4.30
2023-02-25T07:38:58.996Z,4.30
2023-02-25T07:41:27.162Z,4.30
2023-02-25T07:43:55.367Z,4.40
2023-02-25T07:46:23.487Z,4.40
2023-02-25T07:48:51.684Z,4.40
2023-02-25T07:51:23.476Z,4.40
2023-02-25T07:53:57.333Z,4.40
2023-02-25T07:56:28.912Z,4.50
2023-02-25T08:01:59.326Z,4.50
2023-02-25T08:04:29.982Z,4.50
2023-02-25T08:06:58.466Z,4.60
2023-02-25T08:09:28.170Z,4.60
2023-02-25T08:11:57.596Z,4.60
2023-02-25T08:14:26.071Z,4.60
2023-02-25T08:16:57.624Z,4.60
2023-02-25T08:19:25.976Z,4.60
2023-02-25T08:22:09.041Z,4.60
2023-02-25T08:24:44.925Z,4.60
2023-02-25T08:27:16.484Z,4.70
2023-02-25T08:29:44.737Z,4.70
2023-02-25T08:32:13.236Z,4.70
2023-02-25T08:34:41.636Z,4.70
2023-02-25T08:37:12.053Z,4.70
2023-02-25T08:39:41.968Z,4.70
2023-02-25T08:42:11.896Z,4.70
2023-02-25T08:44:40.474Z,4.60
2023-02-25T08:47:08.931Z,4.60
2023-02-25T08:49:37.314Z,4.60
2023-02-25T08:52:05.609Z,4.60
2023-02-25T08:54:34.040Z,4.60
2023-02-25T08:57:03.919Z,4.60
2023-02-25T08:59:35.882Z,4.60
2023-02-25T09:02:06.270Z,4.60
2023-02-25T09:04:35.855Z,4.60
2023-02-25T09:07:04.566Z,4.70
2023-02-25T09:09:33.563Z,4.70
2023-02-25T09:12:05.179Z,4.70
2023-02-25T09:14:35.001Z,4.70
2023-02-25T09:17:04.146Z,4.70
2023-02-25T09:19:33.429Z,4.70
2023-02-25T09:22:02.796Z,4.70
2023-02-25T09:24:32.775Z,4.70
2023-02-25T09:27:01.295Z,4.80
2023-02-25T09:29:30.954Z,4.80
2023-02-25T09:31:59.291Z,4.80
2023-02-25T09:34:27.548Z,4.80
2023-02-25T09:36:55.854Z,4.70
2023-02-25T09:39:28.077Z,4.60
2023-02-25T09:42:03.523Z,4.50
2023-02-25T09:44:39.819Z,4.40
2023-02-25T09:47:16.927Z,4.30
2023-02-25T09:49:53.337Z,4.30
2023-02-25T09:52:52.547Z,4.30
2023-02-25T09:55:29.910Z,4.30
2023-02-25T09:58:08.788Z,4.20
2023-02-25T10:00:45.938Z,4.20
2023-02-25T10:03:23.193Z,4.30
2023-02-25T10:06:03.252Z,4.30
2023-02-25T10:08:38.254Z,4.40
2023-02-25T10:11:12.617Z,4.50
2023-02-25T10:13:55.874Z,4.50
2023-02-25T10:16:43.550Z,4.60
2023-02-25T10:19:31.966Z,4.70
2023-02-25T10:22:31.727Z,4.80
2023-02-25T10:25:13.249Z,4.90
2023-02-25T10:27:50.747Z,5.00
2023-02-25T10:30:26.280Z,5.10
2023-02-25T10:32:57.262Z,5.20
2023-02-25T10:35:29.667Z,5.30
2023-02-25T10:37:57.977Z,5.40
2023-02-25T10:40:29.266Z,5.40
2023-02-25T10:43:04.063Z,5.40
2023-02-25T10:45:33.491Z,5.40
2023-02-25T10:48:12.992Z,5.40
2023-02-25T10:50:46.432Z,5.40
2023-02-25T10:53:18.667Z,5.40
2023-02-25T10:55:52.770Z,5.30
2023-02-25T10:58:34.806Z,5.40
2023-02-25T11:01:13.652Z,5.40
2023-02-25T11:03:54.376Z,5.50
2023-02-25T11:06:29.558Z,5.50
2023-02-25T11:09:00.404Z,5.60
2023-02-25T11:11:32.484Z,5.60
2023-02-25T11:14:05.290Z,5.70
2023-02-25T11:16:37.209Z,5.70
2023-02-25T11:19:18.128Z,5.70
2023-02-25T11:21:48.171Z,5.60
2023-02-25T11:24:31.611Z,5.60
2023-02-25T11:27:02.441Z,5.60
2023-02-25T11:29:35.176Z,5.70
2023-02-25T11:32:12.256Z,5.80
2023-02-25T11:34:50.302Z,5.90
2023-02-25T11:37:35.834Z,5.90
2023-02-25T11:40:29.285Z,5.90
2023-02-25T11:46:03.179Z,5.90
2023-02-25T11:48:48.650Z,5.90
2023-02-25T11:51:37.801Z,5.90
2023-02-25T11:54:23.632Z,5.80
2023-02-25T11:56:58.583Z,5.80
2023-02-25T11:59:37.509Z,5.70
2023-02-25T12:02:27.672Z,5.70
2023-02-25T12:05:23.997Z,5.70
2023-02-25T12:08:25.470Z,5.80
2023-02-25T12:11:30.207Z,5.90
2023-02-25T12:14:55.026Z,5.90
2023-02-25T12:18:16.334Z,6.00
2023-02-25T12:21:29.983Z,6.00
2023-02-25T12:24:28.796Z,6.10
2023-02-25T12:27:36.188Z,6.20
2023-02-25T12:31:03.920Z,6.20
2023-02-25T12:34:23.166Z,6.20
2023-02-25T12:37:11.402Z,6.20
2023-02-25T12:40:00.530Z,6.20
2023-02-25T12:42:49.331Z,6.20
2023-02-25T12:45:41.273Z,6.20
2023-02-25T12:49:10.833Z,6.20
2023-02-25T12:52:04.374Z,6.20
2023-02-25T12:55:27.309Z,6.20
2023-02-25T12:58:27.998Z,6.20
2023-02-25T13:01:19.927Z,6.20
2023-02-25T13:04:29.860Z,6.10
2023-02-25T13:07:48.204Z,6.20
2023-02-25T13:10:55.701Z,6.20
2023-02-25T13:13:53.071Z,6.30
2023-02-25T13:16:47.936Z,6.30
2023-02-25T13:19:40.048Z,6.20
2023-02-25T13:22:34.880Z,6.10
2023-02-25T13:25:19.249Z,6.10
2023-02-25T13:28:06.971Z,6.10
2023-02-25T13:30:48.193Z,6.10
2023-02-25T13:33:48.969Z,6.10
2023-02-25T13:36:54.184Z,6.20
2023-02-25T13:40:11.406Z,6.10
2023-02-25T13:43:01.240Z,6.10
2023-02-25T13:45:58.225Z,6.10
2023-02-25T13:49:14.435Z,6.10
2023-02-25T13:52:49.416Z,6.10
2023-02-25T13:55:38.782Z,6.10
2023-02-25T13:58:45.387Z,6.10
2023-02-25T14:01:54.052Z,6.10
2023-02-25T14:04:50.010Z,6.00
2023-02-25T14:07:37.152Z,6.00
2023-02-25T14:10:29.280Z,6.00
2023-02-25T14:13:24.469Z,6.00
2023-02-25T14:16:07.044Z,6.00
2023-02-25T14:18:56.124Z,6.10
2023-02-25T14:22:20.119Z,6.00
2023-02-25T14:25:03.419Z,5.90
2023-02-25T14:27:46.633Z,5.90
2023-02-25T14:30:31.217Z,5.90
2023-02-25T14:33:43.268Z,6.00
2023-02-25T14:36:44.407Z,6.00
2023-02-25T14:39:33.138Z,6.00
2023-02-25T14:42:29.737Z,5.90
2023-02-25T14:45:14.084Z,5.90
2023-02-25T14:47:53.010Z,5.90
2023-02-25T14:50:28.420Z,5.90
2023-02-25T14:53:27.314Z,5.80
2023-02-25T14:56:36.190Z,5.80
2023-02-25T14:59:29.512Z,5.80
2023-02-25T15:02:46.090Z,5.80
2023-02-25T15:05:39.821Z,5.70
2023-02-25T15:08:45.478Z,5.80
2023-02-25T15:11:51.290Z,5.80
2023-02-25T15:15:00.397Z,5.80
2023-02-25T15:18:40.444Z,5.80
2023-02-25T15:21:43.997Z,5.80
2023-02-25T15:24:40.646Z,5.80
2023-02-25T15:27:45.722Z,5.90
2023-02-25T15:30:17.608Z,5.90
2023-02-25T15:33:07.064Z,5.90
2023-02-25T15:35:58.069Z,5.80
2023-02-25T15:38:49.508Z,5.80
2023-02-25T15:41:44.670Z,5.70
2023-02-25T15:44:37.155Z,5.70
2023-02-25T15:47:29.174Z,5.70
2023-02-25T15:49:59.191Z,5.60
2023-02-25T15:52:53.851Z,5.60
2023-02-25T15:55:39.810Z,5.60
2023-02-25T15:58:43.957Z,5.50
2023-02-25T16:01:39.650Z,5.50
2023-02-25T16:04:47.321Z,5.40
2023-02-25T16:07:20.622Z,5.40
2023-02-25T16:09:57.856Z,5.30
2023-02-25T16:12:29.639Z,5.30
2023-02-25T16:14:59.980Z,5.30
2023-02-25T16:17:33.935Z,5.30
2023-02-25T16:20:17.929Z,5.30
2023-02-25T16:22:48.671Z,5.20
2023-02-25T16:25:25.621Z,5.20
2023-02-25T16:28:04.479Z,5.20
2023-02-25T16:30:42.084Z,5.10
2023-02-25T16:33:22.352Z,5.10
2023-02-25T16:36:07.528Z,5.10
2023-02-25T16:38:45.740Z,5.10
2023-02-25T16:41:16.107Z,5.00
2023-02-25T16:43:46.704Z,4.90
2023-02-25T16:46:19.747Z,4.90
2023-02-25T16:48:51.544Z,4.90
2023-02-25T16:51:26.094Z,4.80
2023-02-25T16:53:58.832Z,4.80
2023-02-25T16:56:31.275Z,4.80
2023-02-25T16:59:06.949Z,4.70
2023-02-25T17:01:38.820Z,4.70
2023-02-25T17:04:19.385Z,4.60
2023-02-25T17:07:14.400Z,4.60
2023-02-25T17:09:49.367Z,4.60
2023-02-25T17:12:23.425Z,4.60
2023-02-25T17:14:54.936Z,4.50
2023-02-25T17:17:30.075Z,4.50
2023-02-25T17:20:00.306Z,4.40
2023-02-25T17:22:29.301Z,4.40
2023-02-25T17:24:59.453Z,4.40
2023-02-25T17:27:29.372Z,4.30
2023-02-25T17:29:59.296Z,4.30
2023-02-25T17:32:30.415Z,4.20
2023-02-25T17:35:02.673Z,4.20
2023-02-25T17:37:33.121Z,4.20
2023-02-25T17:40:03.834Z,4.10
2023-02-25T17:42:35.832Z,4.10
2023-02-25T17:45:28.154Z,4.00
2023-02-25T17:47:56.387Z,4.00
2023-02-25T17:50:31.639Z,4.00
2023-02-25T17:53:00.437Z,3.90
2023-02-25T17:55:34.642Z,3.90
2023-02-25T17:58:04.442Z,3.90
2023-02-25T18:00:37.201Z,3.90
2023-02-25T18:03:17.948Z,3.80
2023-02-25T18:05:53.091Z,3.80
2023-02-25T18:08:23.406Z,3.70
2023-02-25T18:10:58.866Z,3.70
2023-02-25T18:13:35.106Z,3.70
2023-02-25T18:16:33.237Z,3.70
2023-02-25T18:19:02.142Z,3.60
2023-02-25T18:21:30.408Z,3.60
2023-02-25T18:24:00.408Z,3.60
2023-02-25T18:26:28.646Z,3.50
2023-02-25T18:28:58.517Z,3.50
2023-02-25T18:31:28.261Z,3.50
2023-02-25T18:33:56.548Z,3.50
2023-02-25T18:36:28.589Z,3.40
2023-02-25T18:39:03.965Z,3.40
2023-02-25T18:41:33.518Z,3.40
2023-02-25T18:44:02.401Z,3.40
2023-02-25T18:46:31.988Z,3.30
2023-02-25T18:49:00.271Z,3.30
2023-02-25T18:51:28.569Z,3.30
2023-02-25T18:53:56.701Z,3.30
2023-02-25T18:56:25.203Z,3.30
2023-02-25T18:58:54.599Z,3.30
2023-02-25T19:01:25.803Z,3.20
2023-02-25T19:03:59.809Z,3.20
2023-02-25T19:06:29.145Z,3.20
2023-02-25T19:08:57.376Z,3.20
2023-02-25T19:11:31.606Z,3.20
2023-02-25T19:13:59.911Z,3.20
2023-02-25T19:16:28.542Z,3.10
2023-02-25T19:18:58.011Z,3.10
2023-02-25T19:21:26.261Z,3.10
2023-02-25T19:23:55.406Z,3.10
2023-02-25T19:26:25.018Z,3.10
2023-02-25T19:28:53.392Z,3.10
2023-02-25T19:31:21.558Z,3.10
2023-02-25T19:33:49.709Z,3.00
2023-02-25T19:36:19.258Z,3.00
2023-02-25T19:38:47.480Z,3.00
2023-02-25T19:41:15.699Z,3.00
2023-02-25T19:43:44.061Z,2.90
2023-02-25T19:46:12.270Z,2.90
2023-02-25T19:48:40.418Z,2.90
2023-02-25T19:51:10.210Z,2.90
2023-02-25T19:53:39.920Z,2.90
2023-02-25T19:56:08.746Z,2.80
2023-02-25T19:58:37.404Z,2.80
2023-02-25T20:01:09.711Z,2.80
2023-02-25T20:03:38.050Z,2.80
2023-02-25T20:06:08.540Z,2.70
2023-02-25T20:08:39.757Z,2.70
2023-02-25T20:11:10.531Z,2.70
2023-02-25T20:13:38.965Z,2.70
2023-02-25T20:16:09.148Z,2.70
2023-02-25T20:18:37.554Z,2.60
2023-02-25T20:21:06.487Z,2.70
2023-02-25T20:23:34.825Z,2.60
2023-02-25T20:26:12.552Z,2.60
2023-02-25T20:28:41.888Z,2.60
2023-02-25T20:31:14.690Z,2.60
2023-02-25T20:33:43.775Z,2.60
2023-02-25T20:36:23.413Z,2.60
2023-02-25T20:39:34.490Z,2.60
2023-02-25T20:42:05.374Z,2.60
2023-02-25T20:44:34.546Z,2.60
2023-02-25T20:47:03.409Z,2.60
2023-02-25T20:49:32.769Z,2.50
2023-02-25T20:52:01.930Z,2.50
2023-02-25T20:54:30.208Z,2.50
2023-02-25T20:56:58.404Z,2.60
2023-02-25T20:59:28.022Z,2.50
2023-02-25T21:01:57.707Z,2.50
2023-02-25T21:04:25.889Z,2.50
2023-02-25T21:06:54.186Z,2.50
2023-02-25T21:09:22.537Z,2.40
2023-02-25T21:11:50.741Z,2.40
2023-02-25T21:14:18.939Z,2.40
2023-02-25T21:16:54.357Z,2.40
2023-02-25T21:19:23.896Z,2.40
2023-02-25T21:21:52.484Z,2.50
2023-02-25T21:24:20.850Z,2.50
2023-02-25T21:26:49.077Z,2.40
2023-02-25T21:29:17.353Z,2.40
2023-02-25T21:31:45.763Z,2.40
2023-02-25T21:34:15.402Z,2.40
2023-02-25T21:36:43.882Z,2.40
2023-02-25T21:39:12.451Z,2.40
2023-02-25T21:41:44.300Z,2.30
2023-02-25T21:44:13.298Z,2.30
2023-02-25T21:46:42.602Z,2.30
2023-02-25T21:49:11.388Z,2.30
2023-02-25T21:51:41.121Z,2.20
2023-02-25T21:54:10.146Z,2.20
2023-02-25T21:56:38.440Z,2.10
2023-02-25T21:59:06.937Z,2.10
2023-02-25T22:01:37.960Z,2.10
2023-02-25T22:04:07.742Z,2.10
2023-02-25T22:06:36.319Z,2.10
2023-02-25T22:09:07.255Z,2.00
2023-02-25T22:11:38.566Z,2.00
2023-02-25T22:14:09.223Z,2.00
2023-02-25T22:16:39.515Z,2.00
2023-02-25T22:19:07.777Z,1.90
2023-02-25T22:21:37.063Z,2.00
2023-02-25T22:24:07.295Z,1.90
2023-02-25T22:26:37.427Z,1.90
2023-02-25T22:29:09.449Z,1.90
2023-02-25T22:31:38.421Z,1.90
2023-02-25T22:34:08.100Z,1.90
2023-02-25T22:36:36.460Z,1.80
2023-02-25T22:39:08.585Z,1.80
2023-02-25T22:41:38.039Z,1.80
2023-02-25T22:44:07.052Z,1.80
2023-02-25T22:46:38.652Z,1.80
2023-02-25T22:49:09.178Z,1.80
2023-02-25T22:51:42.701Z,1.80
2023-02-25T22:54:14.270Z,1.70
2023-02-25T22:56:43.608Z,1.70
2023-02-25T22:59:13.187Z,1.70
2023-02-25T23:01:42.126Z,1.70
2023-02-25T23:04:10.503Z,1.70
2023-02-25T23:06:44.444Z,1.60
2023-02-25T23:09:15.639Z,1.70
2023-02-25T23:11:45.463Z,1.60
2023-02-25T23:14:15.156Z,1.60
2023-02-25T23:16:45.671Z,1.60
2023-02-25T23:19:19.096Z,1.60
2023-02-25T23:21:47.377Z,1.60
2023-02-25T23:24:19.339Z,1.60
2023-02-25T23:26:50.644Z,1.60
2023-02-25T23:29:19.476Z,1.50
2023-02-25T23:31:50.130Z,1.50
2023-02-25T23:34:22.842Z,1.50
2023-02-25T23:36:51.725Z,1.50
2023-02-25T23:39:21.210Z,1.50
2023-02-25T23:41:49.482Z,1.50
2023-02-25T23:44:17.803Z,1.50
2023-02-25T23:46:46.245Z,1.40
2023-02-25T23:49:17.583Z,1.40
2023-02-25T23:51:48.510Z,1.40
2023-02-25T23:54:22.429Z,1.40
2023-02-25T23:56:51.311Z,1.40
2023-02-25T23:59:23.309Z,1.40
